Time;durP1;ratioP1;P1;durP2;ratioP2;P2;SDS_P1;SDS_P2;PMS_P1;PMS_P2;Temp;Humidity;BMP_temperature;BMP_pressure;BME280_temperature;BME280_humidity;BME280_pressure;Samples;Min_cycle;Max_cycle;Signal;HPM_P1;HPM_P2
2022/08/29 00:00:34;;;;;;;3.53;2.50;;;23.40;45.50;24.30;101285.00;;;;5048073;28;20221;-38
2022/08/29 00:03:00;;;;;;;3.47;2.43;;;23.40;45.50;24.30;101294.00;;;;5048874;28;20253;-38
2022/08/29 00:05:31;;;;;;;3.33;2.50;;;23.40;45.50;24.30;101244.00;;;;5048499;28;20212;-38
2022/08/29 00:07:58;;;;;;;3.50;2.67;;;23.40;45.30;24.30;101282.00;;;;5046891;28;20535;-39
2022/08/29 00:10:24;;;;;;;3.30;2.57;;;23.40;45.50;24.30;101281.00;;;;5047207;28;20210;-38
2022/08/29 00:12:50;;;;;;;3.33;2.27;;;23.40;45.50;24.30;101269.00;;;;5047995;28;20178;-39
2022/08/29 00:15:15;;;;;;;3.27;2.70;;;23.40;45.60;24.30;101274.00;;;;5047955;28;20209;-38
2022/08/29 00:17:41;;;;;;;2.70;2.50;;;23.40;45.60;24.30;101262.00;;;;5047662;28;20163;-38
2022/08/29 00:20:10;;;;;;;6.00;2.60;;;23.40;45.70;24.30;101275.00;;;;5047715;28;20569;-38
2022/08/29 00:22:35;;;;;;;2.90;2.60;;;23.40;45.90;24.20;101270.00;;;;5047710;28;20170;-38
2022/08/29 00:25:01;;;;;;;4.47;2.53;;;23.40;45.70;24.20;101254.00;;;;5047768;28;20192;-38
2022/08/29 00:27:27;;;;;;;3.00;2.40;;;23.40;45.90;24.20;101267.00;;;;5047688;28;20180;-38
2022/08/29 00:29:53;;;;;;;3.20;2.50;;;23.40;45.80;24.20;101268.00;;;;5047865;28;20193;-38
2022/08/29 00:32:19;;;;;;;3.60;2.90;;;23.40;45.80;24.20;101263.00;;;;5047762;28;20178;-37
2022/08/29 00:34:45;;;;;;;2.73;2.33;;;23.40;46.00;24.20;101274.00;;;;5047845;28;20194;-38
2022/08/29 00:37:10;;;;;;;3.87;2.50;;;23.40;45.90;24.20;101275.00;;;;5050461;28;20162;-37
2022/08/29 00:39:36;;;;;;;3.33;2.40;;;23.40;46.00;24.20;101271.00;;;;5058118;28;20190;-37
2022/08/29 00:42:02;;;;;;;3.37;2.50;;;23.40;46.10;24.20;101273.00;;;;5054159;28;20261;-38
2022/08/29 00:44:28;;;;;;;3.00;2.60;;;23.30;46.00;24.20;101274.00;;;;5053049;28;20186;-38
2022/08/29 00:46:56;;;;;;;3.70;2.57;;;23.30;46.00;24.10;101271.00;;;;5048028;28;20329;-39
2022/08/29 00:49:29;;;;;;;3.60;2.50;;;23.30;46.10;24.10;101277.00;;;;5047969;28;20240;-38
2022/08/29 00:51:57;;;;;;;2.93;2.57;;;23.30;46.20;24.10;101278.00;;;;5046695;28;20697;-38
2022/08/29 00:54:23;;;;;;;3.17;2.20;;;23.30;46.30;24.10;101261.00;;;;5046710;28;20259;-37
2022/08/29 00:56:49;;;;;;;2.87;2.40;;;23.30;46.20;24.10;101281.00;;;;5046437;28;20718;-36
2022/08/29 00:59:19;;;;;;;3.43;2.80;;;23.20;46.20;24.10;101285.00;;;;5046125;28;20193;-38
2022/08/29 01:01:45;;;;;;;2.97;2.20;;;23.20;46.20;24.10;101275.00;;;;5046517;28;20207;-37
2022/08/29 01:04:10;;;;;;;2.87;2.40;;;23.20;46.20;24.10;101272.00;;;;5047359;28;20166;-38
2022/08/29 01:06:37;;;;;;;3.43;2.60;;;23.20;46.20;24.10;101272.00;;;;5047498;28;20186;-38
2022/08/29 01:09:03;;;;;;;3.00;2.50;;;23.20;46.20;24.00;101275.00;;;;5045619;28;20202;-38
2022/08/29 01:14:16;;;;;;;2.80;2.50;;;23.20;46.20;24.00;101276.00;;;;5047189;28;20300;-38
2022/08/29 01:16:42;;;;;;;3.00;2.50;;;23.20;46.30;24.00;101277.00;;;;5047153;28;20178;-39
2022/08/29 01:19:23;;;;;;;3.00;2.40;;;23.20;46.20;24.00;101278.00;;;;5045603;28;20277;-38
2022/08/29 01:22:16;;;;;;;2.93;2.53;;;23.20;46.20;24.00;101283.00;;;;5050808;28;20158;-39
2022/08/29 01:24:50;;;;;;;3.50;2.70;;;23.20;46.20;23.90;101223.00;;;;5073806;28;20201;-37
2022/08/29 01:27:20;;;;;;;2.63;2.40;;;23.10;46.10;23.90;101291.00;;;;5067609;28;20204;-38
2022/08/29 01:29:46;;;;;;;3.57;2.40;;;23.10;46.30;23.90;101291.00;;;;5070713;28;20197;-37
2022/08/29 01:32:13;;;;;;;3.10;2.50;;;23.10;46.30;23.90;101297.00;;;;5071016;28;20168;-37
2022/08/29 01:34:39;;;;;;;2.43;2.23;;;23.10;46.40;23.80;101296.00;;;;5070757;28;20284;-39
2022/08/29 01:37:06;;;;;;;3.23;2.60;;;23.10;46.40;23.80;101290.00;;;;5070570;28;20166;-38
2022/08/29 01:39:35;;;;;;;3.17;2.43;;;23.00;46.50;23.80;101299.00;;;;5069560;28;20601;-37
2022/08/29 01:42:15;;;;;;;2.87;2.60;;;23.00;46.40;23.80;101298.00;;;;5073824;28;20537;-39
2022/08/29 01:44:41;;;;;;;3.07;2.40;;;23.00;46.40;23.80;101303.00;;;;5075019;28;20162;-38
2022/08/29 01:47:07;;;;;;;3.23;2.67;;;23.00;46.40;23.80;101299.00;;;;5068890;28;20186;-37
2022/08/29 01:49:35;;;;;;;3.53;2.53;;;23.00;46.60;23.80;101302.00;;;;5069826;28;20239;-38
2022/08/29 01:52:01;;;;;;;3.60;2.67;;;23.00;46.60;23.70;101311.00;;;;5070642;28;20848;-39
2022/08/29 01:54:28;;;;;;;3.00;2.30;;;23.00;46.60;23.70;101310.00;;;;5068405;28;20201;-37
2022/08/29 01:56:54;;;;;;;3.30;2.60;;;23.00;46.70;23.70;101314.00;;;;5069959;28;20166;-39
2022/08/29 01:59:26;;;;;;;2.83;2.30;;;23.00;46.60;23.70;101315.00;;;;5069223;28;20198;-38
2022/08/29 02:02:15;;;;;;;3.30;2.57;;;22.90;46.60;23.70;101312.00;;;;5070298;28;20162;-37
2022/08/29 02:04:46;;;;;;;4.23;2.50;;;23.00;46.70;23.70;101316.00;;;;5072395;28;20189;-39
2022/08/29 02:07:15;;;;;;;2.80;2.47;;;22.90;46.70;23.60;101316.00;;;;5071754;28;20158;-38
2022/08/29 02:09:41;;;;;;;4.23;2.60;;;22.90;46.70;23.60;101312.00;;;;5071299;28;20568;-39
2022/08/29 02:12:06;;;;;;;2.80;2.43;;;22.90;46.70;23.60;101319.00;;;;5071743;28;20184;-39
2022/08/29 02:14:33;;;;;;;2.80;2.50;;;22.80;46.60;23.60;101320.00;;;;5071075;28;20796;-39
2022/08/29 02:17:01;;;;;;;3.47;2.50;;;22.80;46.60;23.60;101314.00;;;;5070847;28;20253;-38
2022/08/29 02:19:27;;;;;;;2.80;2.60;;;22.80;46.70;23.40;101314.00;;;;5071423;28;20226;-38
2022/08/29 02:21:53;;;;;;;3.07;2.50;;;22.80;46.90;23.50;101323.00;;;;5071592;28;20170;-37
2022/08/29 02:24:18;;;;;;;2.60;2.40;;;22.80;46.80;23.50;101321.00;;;;5071391;28;20929;-37
2022/08/29 02:26:44;;;;;;;3.43;2.70;;;22.80;46.80;23.50;101312.00;;;;5071228;28;20201;-38
2022/08/29 02:29:11;;;;;;;3.00;2.50;;;22.80;46.80;23.50;101328.00;;;;5069311;28;20272;-38
2022/08/29 02:31:38;;;;;;;2.90;2.60;;;22.80;46.80;23.50;101325.00;;;;5068638;28;20239;-38
2022/08/29 02:34:05;;;;;;;3.03;2.63;;;22.80;46.80;23.50;101325.00;;;;5068197;28;20169;-38
2022/08/29 02:36:30;;;;;;;3.60;2.57;;;22.80;47.00;23.50;101331.00;;;;5069117;28;20205;-38
2022/08/29 02:38:56;;;;;;;3.43;2.73;;;22.80;47.30;23.40;101320.00;;;;5068593;28;20221;-38
2022/08/29 02:41:22;;;;;;;2.60;2.40;;;22.80;47.30;23.40;101321.00;;;;5069934;28;20219;-38
2022/08/29 02:43:48;;;;;;;2.90;2.60;;;22.70;47.20;23.40;101319.00;;;;5069933;28;20251;-38
2022/08/29 02:46:17;;;;;;;2.80;2.50;;;22.70;47.30;23.40;101318.00;;;;5069683;28;20268;-38
2022/08/29 02:48:43;;;;;;;2.97;2.63;;;22.70;47.20;23.40;101318.00;;;;5069638;28;20201;-38
2022/08/29 02:51:09;;;;;;;3.07;2.67;;;22.70;47.20;23.40;101317.00;;;;5069485;28;20903;-38
2022/08/29 02:53:35;;;;;;;3.30;2.90;;;22.70;47.20;23.40;101325.00;;;;5069683;28;20181;-37
2022/08/29 02:56:01;;;;;;;3.10;2.63;;;22.70;47.20;23.40;101327.00;;;;5069507;28;20285;-37
2022/08/29 02:58:27;;;;;;;2.97;2.67;;;22.60;47.10;23.30;101327.00;;;;5069159;28;20169;-37
2022/08/29 03:00:53;;;;;;;3.03;2.73;;;22.60;47.10;23.30;101325.00;;;;5068140;28;20178;-37
2022/08/29 03:03:19;;;;;;;2.97;2.53;;;22.60;47.20;23.30;101332.00;;;;5069271;28;20181;-37
2022/08/29 03:05:44;;;;;;;3.83;2.90;;;22.60;47.10;23.30;101315.00;;;;5069407;28;20194;-38
2022/08/29 03:08:12;;;;;;;3.37;2.60;;;22.60;47.10;23.30;101326.00;;;;5069399;28;20178;-37
2022/08/29 03:10:39;;;;;;;3.63;2.70;;;22.50;47.00;23.20;101330.00;;;;5069199;28;20189;-37
2022/08/29 03:13:05;;;;;;;3.27;2.67;;;22.50;47.10;23.20;101320.00;;;;5069384;28;20182;-38
2022/08/29 03:15:30;;;;;;;3.43;2.80;;;22.60;47.10;23.20;101317.00;;;;5069001;28;20208;-38
2022/08/29 03:17:56;;;;;;;3.20;2.73;;;22.50;47.00;23.20;101312.00;;;;5068843;28;20169;-38
2022/08/29 03:20:22;;;;;;;3.27;2.80;;;22.50;47.00;23.20;101316.00;;;;5069144;28;20284;-38
2022/08/29 03:22:48;;;;;;;4.87;2.60;;;22.50;47.00;23.20;101309.00;;;;5069006;28;20657;-37
2022/08/29 03:25:15;;;;;;;2.73;2.53;;;22.40;47.00;23.10;101311.00;;;;5067758;28;20184;-38
2022/08/29 03:27:41;;;;;;;3.83;2.60;;;22.40;47.10;23.10;101314.00;;;;5068909;28;20188;-38
2022/08/29 03:30:08;;;;;;;3.03;2.70;;;22.40;47.60;23.10;101308.00;;;;5071076;28;20777;-38
2022/08/29 03:32:34;;;;;;;3.20;2.43;;;22.40;47.30;23.10;101295.00;;;;5069616;28;20196;-38
2022/08/29 03:35:00;;;;;;;7.30;2.70;;;22.40;47.10;23.10;101293.00;;;;5068771;28;20284;-38
2022/08/29 03:37:26;;;;;;;6.63;2.87;;;22.40;47.30;23.10;101293.00;;;;5068280;28;20198;-38
2022/08/29 03:39:52;;;;;;;4.23;2.73;;;22.40;47.20;23.10;101291.00;;;;5068737;28;20217;-38
2022/08/29 03:42:18;;;;;;;4.00;2.70;;;22.40;47.10;23.00;101283.00;;;;5068634;28;20177;-38
2022/08/29 03:44:44;;;;;;;4.37;3.70;;;22.30;47.10;23.10;101283.00;;;;5067854;28;20180;-37
2022/08/29 03:47:10;;;;;;;6.03;3.97;;;22.30;47.10;23.00;101294.00;;;;5068167;28;20694;-38
2022/08/29 03:49:35;;;;;;;6.00;3.50;;;22.30;47.10;23.00;101286.00;;;;5068402;28;20217;-38
2022/08/29 03:52:02;;;;;;;5.93;3.40;;;22.30;47.10;23.00;101288.00;;;;5068583;28;20642;-38
2022/08/29 03:54:28;;;;;;;3.40;3.00;;;22.30;47.10;23.00;101289.00;;;;5068485;28;20178;-37
2022/08/29 03:56:55;;;;;;;3.33;3.00;;;22.30;47.20;22.90;101289.00;;;;5068094;28;20185;-37
2022/08/29 03:59:21;;;;;;;4.20;3.00;;;22.30;47.30;22.90;101277.00;;;;5067882;28;20194;-38
2022/08/29 04:01:47;;;;;;;3.73;2.80;;;22.20;47.20;22.90;101285.00;;;;5066795;28;20211;-38
2022/08/29 04:05:05;;;;;;;3.17;2.80;;;22.20;47.10;22.90;101283.00;;;;5067076;28;20719;-39
2022/08/29 04:07:00;;;;;;;4.23;2.73;;;22.20;47.20;22.90;101283.00;;;;5067839;28;20195;-38
2022/08/29 04:09:27;;;;;;;4.00;2.70;;;22.20;47.30;22.90;101268.00;;;;5066973;28;20296;-38
2022/08/29 04:11:53;;;;;;;3.20;2.80;;;22.10;47.20;22.80;101267.00;;;;5067969;28;20180;-37
2022/08/29 04:14:19;;;;;;;3.53;2.87;;;22.10;47.90;22.80;101270.00;;;;5068189;28;20253;-38
2022/08/29 04:16:48;;;;;;;3.07;2.70;;;22.10;47.30;22.80;101268.00;;;;5068437;28;20174;-38
2022/08/29 04:19:15;;;;;;;3.60;2.60;;;22.10;47.30;22.80;101249.00;;;;5067877;28;20213;-39
2022/08/29 04:21:41;;;;;;;4.70;3.07;;;22.10;47.40;22.80;101263.00;;;;5073557;28;20176;-38
2022/08/29 04:24:07;;;;;;;3.87;2.70;;;22.10;47.30;22.80;101263.00;;;;5080822;28;20689;-41
2022/08/29 04:26:33;;;;;;;5.63;3.00;;;22.10;47.30;22.70;101270.00;;;;5076649;28;20304;-38
2022/08/29 04:29:00;;;;;;;3.63;2.80;;;22.00;47.30;22.70;101270.00;;;;5071872;28;20193;-38
2022/08/29 04:31:25;;;;;;;5.17;2.90;;;22.00;47.40;22.70;101275.00;;;;5079749;28;20173;-40
2022/08/29 04:33:51;;;;;;;4.67;2.70;;;22.00;47.40;22.70;101275.00;;;;5070680;28;20173;-38
2022/08/29 04:36:17;;;;;;;4.00;3.07;;;21.90;47.30;22.70;101281.00;;;;5068035;28;20608;-38
2022/08/29 04:38:43;;;;;;;4.17;2.67;;;21.90;47.40;22.70;101281.00;;;;5067373;28;20201;-38
2022/08/29 04:41:13;;;;;;;4.10;2.50;;;21.90;47.40;22.70;101217.00;;;;5060117;28;20174;-38
2022/08/29 04:43:40;;;;;;;4.00;2.60;;;21.90;47.40;22.60;101286.00;;;;5053055;28;20194;-38
2022/08/29 04:46:06;;;;;;;3.30;2.70;;;21.90;47.40;22.60;101294.00;;;;5046791;28;20634;-37
2022/08/29 04:48:32;;;;;;;4.77;2.73;;;21.80;47.30;22.60;101296.00;;;;5046637;28;20228;-38
2022/08/29 04:50:59;;;;;;;2.73;2.53;;;21.80;47.50;22.60;101297.00;;;;5047044;28;20185;-40
2022/08/29 04:53:25;;;;;;;4.40;3.00;;;21.80;47.50;22.60;101303.00;;;;5047112;28;20217;-38
2022/08/29 04:56:00;;;;;;;2.83;2.50;;;21.80;47.60;22.60;101306.00;;;;5046943;28;20229;-38
2022/08/29 04:58:26;;;;;;;5.43;2.87;;;21.80;47.70;22.50;101311.00;;;;5046884;28;20150;-38
2022/08/29 05:00:52;;;;;;;4.03;2.67;;;21.80;47.60;22.50;101309.00;;;;5047212;28;20158;-38
2022/08/29 05:03:19;;;;;;;3.87;2.70;;;21.80;47.60;22.50;101305.00;;;;5047086;28;20578;-37
2022/08/29 05:05:45;;;;;;;6.23;2.87;;;21.80;47.70;22.50;101309.00;;;;5046622;28;20174;-39
2022/08/29 05:08:10;;;;;;;6.93;3.03;;;21.80;47.80;22.50;101302.00;;;;5046638;28;20669;-38
2022/08/29 05:10:37;;;;;;;5.67;2.73;;;21.70;47.80;22.50;101308.00;;;;5046138;28;20212;-38
2022/08/29 05:13:03;;;;;;;4.93;3.10;;;21.70;48.00;22.50;101313.00;;;;5046885;28;20209;-37
2022/08/29 05:15:30;;;;;;;3.40;2.80;;;21.70;48.00;22.50;101316.00;;;;5045900;28;20194;-39
2022/08/29 05:17:56;;;;;;;4.37;2.90;;;21.70;48.00;22.40;101299.00;;;;5048989;28;20670;-38
2022/08/29 05:20:21;;;;;;;7.80;2.97;;;21.70;48.00;22.40;101306.00;;;;5048702;28;20803;-38
2022/08/29 05:22:47;;;;;;;3.93;3.07;;;21.70;47.90;22.40;101304.00;;;;5047589;28;20423;-38
2022/08/29 05:25:13;;;;;;;3.60;2.70;;;21.70;47.90;22.40;101310.00;;;;5047050;28;20189;-38
2022/08/29 05:27:39;;;;;;;5.00;2.80;;;21.70;48.00;22.30;101306.00;;;;5046715;28;20178;-38
2022/08/29 05:30:06;;;;;;;5.23;2.87;;;21.60;48.00;22.30;101312.00;;;;5047344;28;20201;-38
2022/08/29 05:32:32;;;;;;;6.80;2.90;;;21.60;48.10;22.30;101317.00;;;;5050284;28;20174;-38
2022/08/29 05:34:58;;;;;;;4.23;2.60;;;21.60;48.10;22.30;101321.00;;;;5049195;28;20702;-38
2022/08/29 05:37:24;;;;;;;5.60;3.00;;;21.60;48.20;22.30;101324.00;;;;5047209;28;20257;-38
2022/08/29 05:39:50;;;;;;;4.00;3.00;;;21.60;48.30;22.30;101330.00;;;;5046839;28;20607;-39
2022/08/29 05:42:18;;;;;;;3.70;2.80;;;21.60;48.60;22.30;101335.00;;;;5046953;28;20177;-38
2022/08/29 05:44:44;;;;;;;3.53;2.80;;;21.50;48.50;22.30;101338.00;;;;5046803;28;20174;-38
2022/08/29 05:47:12;;;;;;;4.80;2.73;;;21.50;48.40;22.30;101343.00;;;;5046233;28;20174;-38
2022/08/29 05:49:39;;;;;;;3.77;2.97;;;21.50;48.30;22.20;101340.00;;;;5046833;28;20190;-38
2022/08/29 05:52:05;;;;;;;4.43;2.97;;;21.50;48.30;22.20;101342.00;;;;5046839;28;20182;-38
2022/08/29 05:54:33;;;;;;;3.47;2.73;;;21.50;48.30;22.20;101349.00;;;;5046570;28;20178;-38
2022/08/29 05:56:58;;;;;;;3.03;2.73;;;21.50;48.40;22.10;101350.00;;;;5045187;28;20162;-38
2022/08/29 05:59:24;;;;;;;3.27;2.67;;;21.50;48.40;22.10;101352.00;;;;5046340;28;20190;-38
2022/08/29 06:01:50;;;;;;;3.03;2.60;;;21.50;48.40;22.10;101344.00;;;;5046696;28;20247;-38
2022/08/29 06:04:16;;;;;;;3.10;2.70;;;21.50;48.50;22.10;101349.00;;;;5046559;28;20166;-38
2022/08/29 06:06:42;;;;;;;4.00;2.87;;;21.50;48.60;22.10;101351.00;;;;5046313;28;20171;-38
2022/08/29 06:09:07;;;;;;;4.13;3.00;;;21.50;48.70;22.10;101345.00;;;;5049213;28;20281;-38
2022/08/29 06:11:33;;;;;;;3.00;2.70;;;21.50;48.80;22.10;101346.00;;;;5050358;28;20163;-37
2022/08/29 06:14:00;;;;;;;3.10;2.80;;;21.50;48.90;22.10;101349.00;;;;5050268;28;20535;-39
2022/08/29 06:16:27;;;;;;;2.80;2.50;;;21.50;48.90;22.10;101345.00;;;;5050219;28;20283;-39
2022/08/29 06:18:53;;;;;;;3.50;2.53;;;21.40;48.80;22.10;101346.00;;;;5049207;28;20194;-37
2022/08/29 06:21:18;;;;;;;3.47;2.73;;;21.50;48.90;22.00;101341.00;;;;5050421;28;20307;-40
2022/08/29 06:23:44;;;;;;;3.13;2.50;;;21.40;48.90;22.00;101355.00;;;;5049928;28;20173;-38
2022/08/29 06:26:10;;;;;;;3.00;2.70;;;21.40;48.90;22.00;101351.00;;;;5048698;28;20181;-37
2022/08/29 06:28:38;;;;;;;3.87;3.00;;;21.50;49.00;22.00;101363.00;;;;5049214;28;20201;-38
2022/08/29 06:31:25;;;;;;;3.10;2.80;;;21.40;49.00;22.00;101371.00;;;;5049783;28;20185;-38
2022/08/29 06:33:52;;;;;;;3.60;3.03;;;21.40;49.20;22.00;101364.00;;;;5049890;28;20550;-38
2022/08/29 06:36:18;;;;;;;4.07;2.70;;;21.30;49.10;22.00;101369.00;;;;5049789;28;20792;-38
2022/08/29 06:38:44;;;;;;;3.27;2.73;;;21.30;49.30;22.00;101370.00;;;;5048709;28;20217;-38
2022/08/29 06:41:12;;;;;;;5.77;3.50;;;21.40;49.50;22.00;101362.00;;;;5049610;28;20166;-38
2022/08/29 06:43:39;;;;;;;5.37;3.13;;;21.30;49.70;22.00;101360.00;;;;5049757;28;20242;-38
2022/08/29 06:46:05;;;;;;;4.30;2.67;;;21.30;50.00;22.00;101362.00;;;;5049930;28;20185;-38
2022/08/29 06:48:31;;;;;;;5.30;3.30;;;21.30;49.90;22.00;101372.00;;;;5048967;28;20169;-38
2022/08/29 06:50:59;;;;;;;4.90;2.80;;;21.30;50.40;22.00;101365.00;;;;5049315;28;20201;-37
2022/08/29 06:53:26;;;;;;;4.77;2.90;;;21.30;50.00;22.00;101370.00;;;;5048286;28;20181;-38
2022/08/29 06:55:51;;;;;;;4.27;3.47;;;21.30;50.10;22.00;101371.00;;;;5049239;28;20201;-38
2022/08/29 06:58:17;;;;;;;3.77;2.83;;;21.30;50.20;21.80;101364.00;;;;5048984;28;20197;-38
2022/08/29 07:00:43;;;;;;;5.83;3.40;;;21.30;50.20;21.90;101363.00;;;;5049489;28;20163;-38
2022/08/29 07:03:09;;;;;;;5.33;3.20;;;21.30;50.10;21.90;101372.00;;;;5049522;28;20169;-38
2022/08/29 07:05:35;;;;;;;5.93;3.17;;;21.30;50.10;21.90;101379.00;;;;5049358;28;20190;-38
2022/08/29 07:08:01;;;;;;;3.90;3.30;;;21.30;50.40;21.90;101376.00;;;;5050252;28;20239;-38
2022/08/29 07:10:26;;;;;;;4.17;2.90;;;21.30;50.30;21.90;101383.00;;;;5054392;28;20276;-38
2022/08/29 07:12:52;;;;;;;4.13;2.90;;;21.20;50.20;21.80;101368.00;;;;5048969;28;20650;-38
2022/08/29 07:15:19;;;;;;;4.30;3.27;;;21.20;50.30;21.80;101380.00;;;;5048301;28;20765;-38
2022/08/29 07:17:46;;;;;;;3.23;2.83;;;21.20;50.40;21.80;101378.00;;;;5047880;28;20167;-38
2022/08/29 07:20:12;;;;;;;3.27;2.80;;;21.20;50.40;21.80;101392.00;;;;5048206;28;20213;-38
2022/08/29 07:22:38;;;;;;;3.43;2.80;;;21.20;50.40;21.80;101381.00;;;;5048388;28;20201;-38
2022/08/29 07:25:04;;;;;;;5.07;3.20;;;21.20;50.60;21.80;101383.00;;;;5048418;28;20654;-38
2022/08/29 07:27:30;;;;;;;6.80;3.60;;;21.20;50.80;21.80;101386.00;;;;5013633;28;20180;-38
2022/08/29 07:29:56;;;;;;;4.90;3.70;;;21.10;51.30;21.80;101389.00;;;;5068379;28;20201;-38
2022/08/29 07:32:22;;;;;;;5.57;3.10;;;21.10;51.40;21.80;101387.00;;;;5068738;28;20176;-38
2022/08/29 07:34:47;;;;;;;4.43;3.20;;;21.10;51.80;21.80;101382.00;;;;5064243;28;20202;-38
2022/08/29 07:37:13;;;;;;;4.50;2.90;;;21.10;51.40;21.80;101384.00;;;;5079510;28;20177;-38
2022/08/29 07:39:39;;;;;;;5.80;3.17;;;21.20;51.20;21.70;101377.00;;;;5076452;28;20247;-38
2022/08/29 07:42:05;;;;;;;4.77;3.10;;;21.20;51.20;21.70;101376.00;;;;5070900;28;20212;-39
2022/08/29 07:44:31;;;;;;;4.23;3.00;;;21.20;51.50;21.70;101367.00;;;;5069073;28;20176;-38
2022/08/29 07:46:58;;;;;;;4.63;3.13;;;21.20;51.50;21.70;101368.00;;;;5088342;28;20245;-38
2022/08/29 07:49:25;;;;;;;4.90;2.90;;;21.10;51.40;21.70;101365.00;;;;5088603;28;20207;-37
2022/08/29 07:51:51;;;;;;;5.23;2.90;;;21.10;51.20;21.70;101365.00;;;;5087253;28;20259;-38
2022/08/29 07:54:18;;;;;;;3.47;2.83;;;21.10;51.40;21.60;101363.00;;;;5085858;28;20171;-38
2022/08/29 07:56:46;;;;;;;4.40;2.80;;;21.10;51.60;21.60;101361.00;;;;5051513;28;20707;-38
2022/08/29 07:59:12;;;;;;;3.87;3.00;;;21.10;51.50;21.60;101364.00;;;;5068158;28;20182;-37
2022/08/29 08:01:38;;;;;;;4.10;2.80;;;21.10;51.60;21.50;101359.00;;;;5068454;28;20733;-38
2022/08/29 08:04:05;;;;;;;4.13;2.87;;;21.00;52.00;21.50;101368.00;;;;5077139;28;20177;-38
2022/08/29 08:06:31;;;;;;;4.17;3.00;;;21.00;51.80;21.50;101378.00;;;;5074959;28;20180;-37
2022/08/29 08:08:56;;;;;;;3.53;3.23;;;21.00;51.90;21.50;101373.00;;;;5070740;28;20296;-36
2022/08/29 08:11:24;;;;;;;3.50;2.87;;;21.00;52.00;21.50;101368.00;;;;5068343;28;20256;-37
2022/08/29 08:13:51;;;;;;;3.97;3.10;;;21.00;52.20;21.50;101383.00;;;;5058131;28;20174;-38
2022/08/29 08:16:20;;;;;;;3.80;2.90;;;21.00;51.90;21.40;101379.00;;;;5047499;28;20234;-38
2022/08/29 08:18:46;;;;;;;3.57;2.80;;;21.00;52.00;21.50;101375.00;;;;5046918;28;20201;-39
2022/08/29 08:21:12;;;;;;;4.23;2.70;;;21.00;52.00;21.50;101371.00;;;;5052778;28;20173;-37
2022/08/29 08:23:38;;;;;;;3.73;2.70;;;20.90;52.10;21.40;101370.00;;;;5057826;28;20177;-38
2022/08/29 08:26:04;;;;;;;2.90;2.60;;;21.00;52.10;21.20;101374.00;;;;5043482;28;20178;-37
2022/08/29 08:28:29;;;;;;;3.10;2.60;;;20.90;52.00;21.40;101380.00;;;;5065641;28;20199;-37
2022/08/29 08:30:56;;;;;;;3.23;2.83;;;21.00;52.10;21.40;101372.00;;;;5087283;28;20599;-38
2022/08/29 08:33:22;;;;;;;4.13;2.80;;;20.90;52.10;21.40;101374.00;;;;5087622;28;20257;-38
2022/08/29 08:35:48;;;;;;;4.23;2.77;;;20.90;52.10;21.40;101376.00;;;;5086488;28;20196;-38
2022/08/29 08:38:15;;;;;;;3.10;2.50;;;20.80;52.10;21.40;101372.00;;;;5087581;28;20334;-38
2022/08/29 08:40:45;;;;;;;5.40;2.77;;;20.80;52.30;21.30;101373.00;;;;5087290;28;20839;-38
2022/08/29 08:43:14;;;;;;;3.20;2.60;;;20.80;52.30;21.40;101380.00;;;;5085866;28;20168;-37
2022/08/29 08:45:41;;;;;;;3.63;2.60;;;20.80;52.10;21.40;101367.00;;;;5086745;28;20171;-37
2022/08/29 08:48:17;;;;;;;4.47;2.50;;;20.80;52.20;21.30;101365.00;;;;5087709;28;20182;-37
2022/08/29 08:51:06;;;;;;;3.23;2.30;;;20.80;52.20;21.30;101369.00;;;;5086542;28;20171;-38
2022/08/29 08:53:44;;;;;;;2.93;2.50;;;20.80;52.30;21.30;101365.00;;;;5070410;28;20158;-38
2022/08/29 08:56:21;;;;;;;3.43;2.50;;;20.80;52.50;21.40;101360.00;;;;5049486;28;20193;-38
2022/08/29 08:58:48;;;;;;;2.93;2.30;;;20.80;52.60;21.30;101361.00;;;;5062383;28;20251;-38
2022/08/29 09:01:31;;;;;;;2.97;2.40;;;20.70;52.50;21.30;101368.00;;;;5047719;28;20536;-38
2022/08/29 09:04:27;;;;;;;3.33;2.53;;;20.70;52.60;21.30;101367.00;;;;5055679;28;20157;-38
2022/08/29 09:07:39;;;;;;;3.60;2.50;;;20.70;52.50;21.30;101371.00;;;;5065901;28;20178;-38
2022/08/29 09:10:57;;;;;;;3.40;2.40;;;20.70;52.50;21.30;101351.00;;;;5055946;28;20208;-38
2022/08/29 09:13:49;;;;;;;3.47;2.60;;;20.70;52.80;21.30;101375.00;;;;5052772;28;20182;-38
2022/08/29 09:16:31;;;;;;;3.77;2.80;;;20.80;53.10;21.30;101379.00;;;;5046020;28;20759;-37
2022/08/29 09:19:05;;;;;;;2.80;2.30;;;20.80;52.80;21.30;101371.00;;;;5052475;28;20196;-38
2022/08/29 09:21:37;;;;;;;2.93;2.50;;;20.80;52.80;21.40;101364.00;;;;5047172;28;20158;-38
2022/08/29 09:24:05;;;;;;;3.53;2.63;;;20.80;52.80;21.40;101377.00;;;;5030740;28;20159;-39
2022/08/29 09:26:30;;;;;;;3.33;2.60;;;20.80;52.80;21.40;101373.00;;;;5029435;28;20681;-38
2022/08/29 09:28:57;;;;;;;3.80;2.40;;;20.80;53.00;21.40;101378.00;;;;5047259;28;20258;-38
2022/08/29 09:31:24;;;;;;;5.77;2.70;;;20.80;53.10;21.40;101379.00;;;;5047076;28;20257;-38
2022/08/29 09:33:58;;;;;;;2.60;2.33;;;20.80;53.20;21.40;101383.00;;;;5047344;28;20191;-38
2022/08/29 09:36:40;;;;;;;3.93;2.87;;;20.80;53.00;21.40;101377.00;;;;5047071;28;20759;-38
2022/08/29 09:39:16;;;;;;;2.80;2.47;;;20.70;53.10;21.40;101367.00;;;;5046897;28;20209;-38
2022/08/29 09:41:43;;;;;;;4.37;2.60;;;20.80;53.10;21.40;101358.00;;;;5046489;28;20166;-38
2022/08/29 09:44:38;;;;;;;4.03;2.90;;;20.90;53.20;21.50;101367.00;;;;5050305;28;20185;-37
2022/08/29 09:47:26;;;;;;;5.10;2.90;;;21.00;53.20;21.50;101348.00;;;;5045657;28;20181;-38
2022/08/29 09:50:16;;;;;;;3.93;2.90;;;20.90;53.20;21.50;101363.00;;;;5051015;28;20857;-38
2022/08/29 09:52:54;;;;;;;3.50;3.13;;;20.90;53.30;21.50;101361.00;;;;5051130;28;20244;-38
2022/08/29 09:55:41;;;;;;;4.37;3.00;;;21.00;53.20;21.50;101346.00;;;;5050690;28;20224;-38
2022/08/29 09:58:17;;;;;;;3.50;3.00;;;21.00;53.20;21.50;101351.00;;;;5050836;28;20161;-39
2022/08/29 10:01:06;;;;;;;4.37;2.93;;;21.10;53.30;21.60;101347.00;;;;5050684;28;20158;-38
2022/08/29 10:03:59;;;;;;;3.43;2.77;;;21.10;53.50;21.60;101348.00;;;;5049354;28;20209;-38
2022/08/29 10:06:28;;;;;;;3.50;2.83;;;21.10;53.10;21.60;101350.00;;;;5050043;28;20162;-38
2022/08/29 10:09:25;;;;;;;4.67;3.03;;;21.10;53.10;21.60;101348.00;;;;5052803;28;20201;-38
2022/08/29 10:11:55;;;;;;;4.13;2.73;;;21.10;53.30;21.60;101349.00;;;;5066944;28;20264;-38
2022/08/29 10:14:35;;;;;;;3.43;2.97;;;21.10;53.30;21.60;101346.00;;;;5052621;28;20658;-38
2022/08/29 10:19:54;;;;;;;5.60;3.00;;;21.20;53.40;21.70;101359.00;;;;5069471;28;20200;-39
2022/08/29 10:22:35;;;;;;;3.40;2.97;;;21.20;53.40;21.70;101317.00;;;;5068881;28;20173;-38
2022/08/29 10:25:08;;;;;;;4.03;2.60;;;21.20;53.20;21.80;101338.00;;;;5037786;28;20231;-38
2022/08/29 10:28:02;;;;;;;5.97;2.77;;;21.20;53.30;21.80;101341.00;;;;5069813;28;20561;-38
2022/08/29 10:30:43;;;;;;;3.93;2.60;;;21.30;53.10;21.90;101343.00;;;;5055737;28;20201;-39
2022/08/29 10:33:35;;;;;;;4.60;2.90;;;21.30;52.90;21.90;101331.00;;;;5070908;28;20176;-38
2022/08/29 10:36:16;;;;;;;4.20;3.10;;;21.40;53.30;21.90;101339.00;;;;5012855;28;20275;-37
2022/08/29 10:38:55;;;;;;;4.17;3.00;;;21.40;53.40;21.90;101323.00;;;;5070263;28;20184;-37
2022/08/29 10:41:45;;;;;;;10.70;3.00;;;21.40;53.20;22.00;101332.00;;;;5069174;28;20299;-39
2022/08/29 10:44:53;;;;;;;6.43;3.13;;;21.50;54.00;22.00;101327.00;;;;5068311;28;20158;-38
2022/08/29 10:47:38;;;;;;;8.53;3.50;;;21.40;53.90;22.00;101327.00;;;;5058634;28;20684;-38
2022/08/29 10:50:38;;;;;;;5.00;3.20;;;21.40;53.40;22.00;101306.00;;;;5069274;28;20190;-38
2022/08/29 10:53:18;;;;;;;8.67;7.00;;;21.40;52.80;22.10;101306.00;;;;5071300;28;20185;-38
2022/08/29 10:55:58;;;;;;;5.97;3.97;;;21.40;52.50;22.10;101303.00;;;;5064659;28;20215;-38
2022/08/29 10:58:45;;;;;;;5.27;3.40;;;21.50;52.10;22.10;101308.00;;;;5078708;28;20158;-38
2022/08/29 11:01:20;;;;;;;9.17;3.87;;;21.60;52.00;22.10;101310.00;;;;5068179;28;20633;-41
2022/08/29 11:04:04;;;;;;;4.93;3.33;;;21.60;53.40;22.20;101307.00;;;;5069459;28;20146;-42